createdAt,value
2022-10-18T00:02:05.255Z,79.05
2022-10-18T00:04:49.260Z,78.49
2022-10-18T00:07:34.665Z,78.75
2022-10-18T00:10:18.773Z,78.85
2022-10-18T00:13:02.713Z,79.38
2022-10-18T00:15:51.071Z,79.23
2022-10-18T00:18:34.999Z,79.09
2022-10-18T00:21:21.295Z,79.63
2022-10-18T00:24:07.668Z,80.15
2022-10-18T00:26:51.567Z,79.86
2022-10-18T00:29:36.095Z,80.21
2022-10-18T00:32:20.182Z,79.51
2022-10-18T00:35:04.318Z,80.34
2022-10-18T00:37:48.360Z,80.51
2022-10-18T00:40:33.807Z,79.77
2022-10-18T00:43:19.515Z,79.92
2022-10-18T00:46:03.482Z,80.30
2022-10-18T00:48:47.886Z,80.53
2022-10-18T00:51:37.732Z,80.67
2022-10-18T00:54:22.631Z,80.23
2022-10-18T00:57:08.679Z,80.14
2022-10-18T00:59:53.115Z,80.78
2022-10-18T01:02:37.445Z,80.18
2022-10-18T01:05:21.697Z,80.20
2022-10-18T01:08:31.650Z,80.49
2022-10-18T01:11:36.039Z,80.15
2022-10-18T01:14:31.019Z,79.59
2022-10-18T01:17:19.950Z,79.79
2022-10-18T01:20:20.815Z,79.48
2022-10-18T01:23:12.484Z,79.33
2022-10-18T01:26:10.597Z,79.47
2022-10-18T01:29:03.446Z,80.11
2022-10-18T01:31:54.277Z,79.39
2022-10-18T01:34:44.700Z,79.41
2022-10-18T01:37:31.486Z,79.58
2022-10-18T01:40:19.637Z,79.52
2022-10-18T01:43:08.243Z,79.69
2022-10-18T01:45:56.170Z,80.95
2022-10-18T01:48:41.566Z,80.99
2022-10-18T01:51:27.222Z,80.05
2022-10-18T01:54:14.187Z,80.27
2022-10-18T01:57:03.104Z,79.66
2022-10-18T01:59:57.694Z,79.80
2022-10-18T02:02:47.544Z,79.23
2022-10-18T02:05:42.756Z,79.24
2022-10-18T02:08:31.993Z,80.17
2022-10-18T02:11:17.479Z,80.52
2022-10-18T02:14:06.773Z,80.47
2022-10-18T02:16:52.983Z,80.08
2022-10-18T02:19:41.213Z,79.92
2022-10-18T02:22:32.108Z,80.62
2022-10-18T02:25:23.573Z,81.09
2022-10-18T02:28:11.251Z,80.56
2022-10-18T02:31:07.141Z,81.31
2022-10-18T02:33:54.904Z,81.28
2022-10-18T02:36:44.124Z,81.12
2022-10-18T02:39:32.313Z,81.01
2022-10-18T02:42:17.000Z,81.21
2022-10-18T02:45:00.687Z,81.49
2022-10-18T02:47:44.552Z,81.58
2022-10-18T02:50:28.441Z,81.39
2022-10-18T02:53:12.170Z,81.69
2022-10-18T02:55:57.403Z,81.89
2022-10-18T02:58:41.104Z,81.97
2022-10-18T03:01:25.103Z,82.11
2022-10-18T03:04:08.875Z,81.84
2022-10-18T03:06:52.776Z,81.97
2022-10-18T03:09:36.653Z,82.16
2022-10-18T03:12:22.177Z,82.93
2022-10-18T03:15:07.207Z,83.10
2022-10-18T03:17:51.209Z,82.39
2022-10-18T03:20:35.530Z,82.69
2022-10-18T03:23:19.464Z,82.97
2022-10-18T03:26:03.519Z,82.43
2022-10-18T03:28:49.073Z,83.45
2022-10-18T03:31:33.908Z,83.15
2022-10-18T03:34:18.151Z,82.82
2022-10-18T03:37:04.735Z,82.87
2022-10-18T03:39:49.318Z,83.77
2022-10-18T03:42:33.195Z,82.58
2022-10-18T03:45:18.518Z,83.28
2022-10-18T03:48:02.238Z,83.36
2022-10-18T03:50:46.011Z,84.45
2022-10-18T03:53:29.681Z,83.47
2022-10-18T03:56:13.481Z,84.45
2022-10-18T03:58:57.865Z,84.32
2022-10-18T04:01:43.096Z,85.12
2022-10-18T04:04:26.822Z,84.80
2022-10-18T04:07:10.551Z,84.50
2022-10-18T04:09:54.288Z,84.72
2022-10-18T04:12:37.984Z,85.15
2022-10-18T04:15:21.922Z,85.63
2022-10-18T04:18:07.036Z,85.18
2022-10-18T04:20:50.802Z,85.27
2022-10-18T04:23:37.886Z,85.06
2022-10-18T04:26:22.960Z,85.81
2022-10-18T04:29:06.897Z,85.70
2022-10-18T04:31:50.742Z,85.57
2022-10-18T04:34:35.960Z,85.34
2022-10-18T04:37:19.633Z,84.94
2022-10-18T04:40:03.603Z,85.13
2022-10-18T04:43:01.151Z,86.17
2022-10-18T04:45:46.297Z,86.13
2022-10-18T04:48:30.274Z,85.93
2022-10-18T04:51:14.068Z,85.41
2022-10-18T04:53:57.811Z,85.61
2022-10-18T04:56:41.530Z,85.38
2022-10-18T04:59:26.803Z,86.02
2022-10-18T05:02:10.657Z,86.62
2022-10-18T05:04:54.552Z,85.87
2022-10-18T05:07:38.426Z,86.22
2022-10-18T05:10:22.180Z,85.36
2022-10-18T05:13:06.218Z,84.93
2022-10-18T05:15:51.254Z,84.84
2022-10-18T05:18:34.968Z,84.37
2022-10-18T05:21:18.795Z,84.43
2022-10-18T05:24:02.855Z,85.06
2022-10-18T05:26:46.837Z,84.76
2022-10-18T05:29:30.570Z,85.16
2022-10-18T05:32:15.615Z,85.78
2022-10-18T05:34:59.349Z,85.52
2022-10-18T05:37:43.072Z,84.67
2022-10-18T05:40:26.828Z,84.32
2022-10-18T05:43:10.620Z,84.94
2022-10-18T05:45:54.426Z,84.07
2022-10-18T05:48:39.540Z,83.96
2022-10-18T05:51:23.306Z,83.55
2022-10-18T05:54:06.991Z,83.53
2022-10-18T05:56:50.706Z,82.65
2022-10-18T05:59:34.496Z,82.75
2022-10-18T06:02:18.373Z,82.73
2022-10-18T06:05:03.505Z,82.44
2022-10-18T06:07:47.292Z,81.87
2022-10-18T06:10:31.013Z,81.43
2022-10-18T06:13:14.775Z,80.20
2022-10-18T06:15:58.676Z,80.54
2022-10-18T06:18:42.920Z,79.47
2022-10-18T06:21:28.133Z,79.78
2022-10-18T06:24:11.805Z,79.88
2022-10-18T06:26:55.634Z,79.36
2022-10-18T06:29:40.960Z,78.56
2022-10-18T06:32:24.669Z,78.16
2022-10-18T06:35:09.297Z,77.41
2022-10-18T06:37:54.829Z,77.38
2022-10-18T06:40:38.876Z,76.20
2022-10-18T06:43:23.316Z,76.22
2022-10-18T06:46:09.014Z,76.06
2022-10-18T06:48:52.904Z,75.48
2022-10-18T06:51:36.751Z,76.03
2022-10-18T06:54:22.083Z,75.75
2022-10-18T06:57:05.807Z,74.90
2022-10-18T06:59:50.152Z,75.82
2022-10-18T07:02:34.186Z,76.17
2022-10-18T07:05:18.197Z,75.71
2022-10-18T07:08:01.991Z,74.41
2022-10-18T07:10:54.089Z,74.21
2022-10-18T07:13:37.761Z,74.95
2022-10-18T07:16:21.866Z,74.24
2022-10-18T07:19:05.796Z,73.22
2022-10-18T07:21:49.512Z,73.43
2022-10-18T07:27:18.354Z,72.71
2022-10-18T07:30:02.060Z,73.33
2022-10-18T07:32:47.422Z,71.30
2022-10-18T07:35:31.139Z,71.04
2022-10-18T07:38:14.923Z,70.29
2022-10-18T07:40:58.800Z,69.44
2022-10-18T07:43:46.332Z,69.74
2022-10-18T07:46:30.422Z,69.07
2022-10-18T07:49:14.176Z,68.04
2022-10-18T07:51:57.981Z,66.89
2022-10-18T07:54:41.731Z,66.82
2022-10-18T07:57:25.486Z,66.84
2022-10-18T08:00:12.254Z,67.50
2022-10-18T08:02:57.258Z,67.50
2022-10-18T08:05:41.084Z,67.51
2022-10-18T08:08:25.995Z,67.02
2022-10-18T08:11:12.248Z,65.66
2022-10-18T08:13:55.983Z,64.96
2022-10-18T08:16:41.192Z,65.88
2022-10-18T08:19:24.951Z,64.90
2022-10-18T08:22:08.758Z,63.29
2022-10-18T08:24:52.540Z,62.94
2022-10-18T08:27:36.243Z,61.67
2022-10-18T08:30:20.014Z,61.21
2022-10-18T08:33:05.220Z,60.70
2022-10-18T08:35:56.585Z,59.94
2022-10-18T08:38:42.427Z,58.81
2022-10-18T08:41:45.216Z,57.35
2022-10-18T08:44:31.728Z,56.40
2022-10-18T08:47:18.825Z,55.94
2022-10-18T08:50:07.179Z,55.40
2022-10-18T08:52:59.368Z,53.94
2022-10-18T08:55:47.063Z,53.21
2022-10-18T08:58:33.586Z,51.73
2022-10-18T09:01:27.810Z,51.01
2022-10-18T09:04:36.072Z,51.38
2022-10-18T09:07:43.035Z,50.20
2022-10-18T09:10:39.337Z,51.30
2022-10-18T09:13:41.659Z,51.94
2022-10-18T09:16:32.218Z,51.84
2022-10-18T09:19:28.553Z,51.81
2022-10-18T09:22:15.260Z,52.43
2022-10-18T09:25:07.642Z,51.78
2022-10-18T09:27:55.137Z,52.79
2022-10-18T09:30:51.720Z,53.14
2022-10-18T09:33:55.410Z,50.60
2022-10-18T09:36:40.111Z,49.70
2022-10-18T09:39:26.979Z,47.82
2022-10-18T09:42:26.553Z,49.24
2022-10-18T09:45:23.591Z,48.22
2022-10-18T09:48:15.241Z,48.38
2022-10-18T09:51:04.468Z,48.83
2022-10-18T09:53:58.039Z,48.60
2022-10-18T09:56:47.117Z,48.27
2022-10-18T09:59:43.229Z,47.61
2022-10-18T10:02:26.984Z,48.15
2022-10-18T10:05:14.214Z,47.07
2022-10-18T10:08:02.383Z,45.08
2022-10-18T10:10:48.760Z,48.84
2022-10-18T10:13:32.847Z,49.55
2022-10-18T10:16:18.025Z,50.42
2022-10-18T10:19:02.251Z,51.48
2022-10-18T10:21:46.578Z,50.85
2022-10-18T10:24:38.336Z,51.16
2022-10-18T10:27:32.173Z,51.10
2022-10-18T10:30:27.309Z,51.18
2022-10-18T10:33:33.627Z,51.68
2022-10-18T10:36:20.297Z,51.49
2022-10-18T10:39:06.061Z,50.65
2022-10-18T10:41:52.407Z,50.41
2022-10-18T10:44:38.029Z,49.43
2022-10-18T10:47:30.208Z,49.56
2022-10-18T10:50:25.826Z,48.67
2022-10-18T10:53:27.033Z,48.72
2022-10-18T10:56:20.297Z,48.39
2022-10-18T10:59:10.980Z,48.29
2022-10-18T11:02:20.779Z,47.92
2022-10-18T11:05:25.430Z,47.97
2022-10-18T11:08:12.394Z,47.35
2022-10-18T11:11:08.536Z,48.53
2022-10-18T11:14:13.788Z,47.22
2022-10-18T11:17:12.194Z,46.62
2022-10-18T11:20:16.658Z,45.43
2022-10-18T11:23:03.713Z,44.95
2022-10-18T11:26:09.121Z,45.23
2022-10-18T11:29:12.855Z,45.50
2022-10-18T11:32:07.546Z,44.69
2022-10-18T11:35:05.054Z,46.40
2022-10-18T11:38:00.816Z,45.93
2022-10-18T11:41:06.143Z,44.78
2022-10-18T11:44:02.775Z,46.00
2022-10-18T11:46:58.858Z,44.69
2022-10-18T11:49:57.829Z,45.56
2022-10-18T11:52:51.311Z,46.65
2022-10-18T11:55:45.631Z,47.42
2022-10-18T11:58:42.646Z,48.24
2022-10-18T12:01:31.725Z,48.50
2022-10-18T12:04:20.186Z,49.02
2022-10-18T12:07:07.906Z,48.58
2022-10-18T12:09:55.492Z,48.31
2022-10-18T12:12:49.582Z,47.75
2022-10-18T12:15:38.323Z,46.51
2022-10-18T12:18:26.615Z,45.49
2022-10-18T12:21:14.318Z,45.50
2022-10-18T12:24:01.206Z,46.05
2022-10-18T12:26:48.603Z,47.91
2022-10-18T12:29:42.667Z,48.68
2022-10-18T12:32:33.711Z,49.95
2022-10-18T12:35:21.481Z,49.76
2022-10-18T12:38:19.090Z,48.87
2022-10-18T12:41:03.314Z,48.84
2022-10-18T12:43:52.885Z,49.18
2022-10-18T12:46:48.187Z,48.17
2022-10-18T12:49:35.432Z,48.23
2022-10-18T12:52:23.168Z,49.15
2022-10-18T12:55:34.988Z,47.89
2022-10-18T12:58:28.280Z,47.65
2022-10-18T13:01:12.027Z,49.23
2022-10-18T13:03:58.783Z,50.10
2022-10-18T13:07:19.870Z,51.32
2022-10-18T13:10:40.058Z,51.54
2022-10-18T13:13:55.991Z,51.55
2022-10-18T13:16:45.489Z,51.20
2022-10-18T13:19:39.848Z,51.00
2022-10-18T13:22:45.000Z,50.07
2022-10-18T13:25:35.506Z,49.80
2022-10-18T13:28:28.249Z,51.23
2022-10-18T13:31:20.566Z,51.50
2022-10-18T13:34:24.301Z,51.74
2022-10-18T13:37:24.072Z,52.75
2022-10-18T13:40:25.338Z,52.37
2022-10-18T13:43:41.959Z,50.95
2022-10-18T13:46:46.658Z,51.37
2022-10-18T13:49:38.056Z,52.06
2022-10-18T13:52:30.655Z,53.31
2022-10-18T13:55:34.950Z,53.67
2022-10-18T13:58:27.167Z,53.64
2022-10-18T14:01:24.445Z,53.24
2022-10-18T14:04:34.764Z,54.01
2022-10-18T14:07:19.792Z,54.27
2022-10-18T14:10:06.175Z,54.35
2022-10-18T14:12:56.592Z,53.70
2022-10-18T14:15:43.139Z,54.10
2022-10-18T14:18:32.062Z,54.42
2022-10-18T14:21:27.455Z,54.75
2022-10-18T14:24:22.494Z,54.97
2022-10-18T14:27:18.392Z,55.11
2022-10-18T14:30:14.522Z,55.46
2022-10-18T14:32:59.601Z,56.22
2022-10-18T14:35:43.954Z,56.39
2022-10-18T14:38:27.908Z,56.77
2022-10-18T14:41:22.032Z,56.58
2022-10-18T14:44:19.712Z,57.13
2022-10-18T14:47:15.927Z,57.04
2022-10-18T14:50:00.860Z,57.38
2022-10-18T14:52:44.697Z,58.23
2022-10-18T14:55:29.639Z,58.75
2022-10-18T14:58:17.414Z,59.15
2022-10-18T15:01:01.651Z,59.45
2022-10-18T15:03:48.349Z,60.36
2022-10-18T15:06:34.216Z,61.41
2022-10-18T15:09:23.694Z,63.47
2022-10-18T15:12:08.686Z,64.30
2022-10-18T15:14:53.808Z,65.04
2022-10-18T15:17:37.697Z,65.69
2022-10-18T15:20:25.148Z,66.81
2022-10-18T15:23:24.394Z,66.55
2022-10-18T15:26:11.355Z,67.41
2022-10-18T15:29:00.455Z,68.11
2022-10-18T15:31:48.287Z,67.78
2022-10-18T15:34:32.338Z,68.84
2022-10-18T15:37:32.649Z,68.81
2022-10-18T15:40:30.502Z,68.56
2022-10-18T15:43:37.083Z,68.79
2022-10-18T15:46:32.151Z,70.02
2022-10-18T15:49:56.791Z,69.33
2022-10-18T15:52:43.639Z,70.77
2022-10-18T15:55:48.058Z,70.66
2022-10-18T15:58:40.153Z,70.66
2022-10-18T16:01:30.494Z,70.81
2022-10-18T16:04:19.675Z,70.84
2022-10-18T16:07:03.584Z,70.14
2022-10-18T16:09:48.927Z,70.32
2022-10-18T16:12:33.164Z,69.84
2022-10-18T16:15:17.062Z,71.15
2022-10-18T16:18:00.936Z,71.37
2022-10-18T16:20:45.049Z,71.09
2022-10-18T16:23:29.717Z,71.22
2022-10-18T16:26:17.651Z,70.67
2022-10-18T16:29:01.989Z,70.27
2022-10-18T16:31:46.722Z,70.10
2022-10-18T16:34:32.231Z,70.46
2022-10-18T16:37:16.301Z,73.32
2022-10-18T16:40:00.130Z,72.61
2022-10-18T16:42:45.517Z,72.97
2022-10-18T16:45:29.456Z,74.44
2022-10-18T16:48:15.893Z,74.51
2022-10-18T16:51:00.420Z,73.64
2022-10-18T16:53:44.695Z,75.35
2022-10-18T16:56:30.631Z,75.98
2022-10-18T16:59:23.049Z,76.89
2022-10-18T17:02:09.285Z,77.69
2022-10-18T17:04:53.002Z,77.92
2022-10-18T17:07:36.953Z,77.22
2022-10-18T17:10:24.299Z,77.18
2022-10-18T17:13:08.135Z,78.10
2022-10-18T17:15:54.338Z,78.86
2022-10-18T17:18:38.150Z,78.66
2022-10-18T17:21:24.882Z,80.89
2022-10-18T17:24:08.715Z,79.43
2022-10-18T17:26:52.456Z,79.82
2022-10-18T17:29:36.229Z,78.47
2022-10-18T17:32:21.317Z,78.87
2022-10-18T17:35:05.908Z,78.96
2022-10-18T17:37:50.448Z,79.48
2022-10-18T17:40:34.803Z,80.44
2022-10-18T17:43:18.581Z,81.85
2022-10-18T17:46:02.403Z,81.94
2022-10-18T17:48:48.194Z,82.38
2022-10-18T17:51:32.091Z,82.14
2022-10-18T17:54:15.845Z,81.31
2022-10-18T17:56:59.639Z,81.84
2022-10-18T17:59:43.466Z,81.60
2022-10-18T18:02:27.359Z,82.32
2022-10-18T18:05:12.747Z,82.87
2022-10-18T18:08:01.313Z,82.85
2022-10-18T18:13:32.612Z,84.01
2022-10-18T18:16:19.711Z,83.14
2022-10-18T18:19:06.197Z,81.99
2022-10-18T18:21:55.183Z,82.26
2022-10-18T18:24:41.850Z,83.20
2022-10-18T18:27:26.033Z,81.60
2022-10-18T18:30:10.761Z,82.52
2022-10-18T18:32:56.782Z,83.30
2022-10-18T18:35:40.603Z,82.16
2022-10-18T18:38:26.240Z,81.76
2022-10-18T18:41:13.188Z,82.18
2022-10-18T18:43:59.263Z,82.63
2022-10-18T18:46:43.372Z,83.33
2022-10-18T18:49:28.319Z,82.26
2022-10-18T18:52:12.507Z,83.25
2022-10-18T18:54:57.909Z,82.96
2022-10-18T18:57:41.879Z,84.16
2022-10-18T19:00:26.029Z,84.51
2022-10-18T19:03:10.726Z,84.97
2022-10-18T19:06:04.002Z,85.03
2022-10-18T19:08:48.616Z,83.84
2022-10-18T19:11:35.864Z,84.61
2022-10-18T19:17:09.592Z,85.18
2022-10-18T19:19:54.470Z,84.97
2022-10-18T19:22:38.583Z,86.16
2022-10-18T19:25:24.791Z,86.44
2022-10-18T19:28:12.277Z,86.38
2022-10-18T19:30:58.481Z,87.23
2022-10-18T19:33:48.440Z,85.30
2022-10-18T19:36:45.264Z,85.03
2022-10-18T19:39:32.476Z,85.77
2022-10-18T19:42:20.503Z,85.86
2022-10-18T19:45:10.380Z,86.73
2022-10-18T19:47:54.216Z,86.95
2022-10-18T19:50:38.338Z,86.57
2022-10-18T19:53:22.285Z,86.68
2022-10-18T19:56:07.609Z,86.23
2022-10-18T19:58:52.098Z,86.87
2022-10-18T20:01:37.673Z,86.55
2022-10-18T20:04:21.744Z,86.93
2022-10-18T20:07:05.937Z,86.79
2022-10-18T20:09:50.423Z,86.80
2022-10-18T20:12:35.532Z,85.81
2022-10-18T20:15:19.518Z,86.52
2022-10-18T20:18:04.929Z,86.75
2022-10-18T20:20:50.013Z,85.74
2022-10-18T20:23:36.068Z,85.09
2022-10-18T20:26:21.179Z,85.34
2022-10-18T20:29:05.418Z,85.16
2022-10-18T20:31:49.438Z,84.46
2022-10-18T20:34:34.811Z,84.78
2022-10-18T20:37:18.579Z,83.47
2022-10-18T20:40:02.378Z,82.34
2022-10-18T20:42:47.294Z,83.52
2022-10-18T20:45:31.074Z,83.13
2022-10-18T20:48:14.951Z,82.75
2022-10-18T20:51:04.301Z,84.29
2022-10-18T20:53:48.310Z,83.66
2022-10-18T20:56:34.321Z,85.34
2022-10-18T20:59:18.190Z,85.06
2022-10-18T21:02:02.012Z,86.38
2022-10-18T21:04:45.845Z,86.62
2022-10-18T21:07:32.424Z,84.59
2022-10-18T21:10:16.460Z,83.84
2022-10-18T21:13:00.170Z,83.51
2022-10-18T21:15:43.956Z,83.66
2022-10-18T21:18:28.582Z,83.76
2022-10-18T21:21:14.582Z,83.84
2022-10-18T21:24:02.565Z,83.76
2022-10-18T21:26:49.358Z,85.31
2022-10-18T21:29:33.173Z,84.98
2022-10-18T21:32:17.811Z,84.78
2022-10-18T21:35:01.656Z,84.53
2022-10-18T21:37:46.756Z,85.46
2022-10-18T21:40:32.374Z,84.66
2022-10-18T21:43:16.160Z,85.75
2022-10-18T21:46:00.495Z,84.89
2022-10-18T21:48:45.332Z,85.05
2022-10-18T21:51:29.511Z,83.68
2022-10-18T21:54:15.660Z,83.24
2022-10-18T21:57:00.855Z,83.51
2022-10-18T21:59:44.692Z,83.59
2022-10-18T22:02:28.629Z,83.79
2022-10-18T22:05:12.485Z,84.21
2022-10-18T22:07:56.388Z,85.35
2022-10-18T22:10:40.075Z,84.96
2022-10-18T22:13:25.361Z,85.78
2022-10-18T22:16:11.077Z,85.88
2022-10-18T22:18:58.851Z,87.00
2022-10-18T22:21:42.582Z,87.52
2022-10-18T22:24:26.503Z,87.05
2022-10-18T22:27:10.318Z,85.64
2022-10-18T22:29:55.466Z,85.29
2022-10-18T22:32:41.115Z,85.99
2022-10-18T22:35:24.896Z,86.10
2022-10-18T22:38:08.885Z,85.79
2022-10-18T22:40:52.672Z,85.23
2022-10-18T22:43:37.489Z,85.11
2022-10-18T22:46:22.761Z,87.24
2022-10-18T22:49:06.957Z,87.58
2022-10-18T22:51:50.740Z,87.03
2022-10-18T22:54:34.600Z,86.31
2022-10-18T22:57:18.387Z,86.24
2022-10-18T23:00:02.135Z,86.38
2022-10-18T23:02:51.441Z,86.97
2022-10-18T23:05:39.098Z,88.07
2022-10-18T23:08:22.962Z,87.23
2022-10-18T23:11:07.088Z,89.31
2022-10-18T23:13:51.178Z,89.57
2022-10-18T23:16:35.312Z,89.39
2022-10-18T23:19:20.473Z,89.65
2022-10-18T23:22:04.254Z,87.86
2022-10-18T23:24:48.035Z,87.12
2022-10-18T23:27:31.836Z,86.96
2022-10-18T23:30:16.711Z,87.16
2022-10-18T23:33:00.453Z,87.45
2022-10-18T23:35:47.395Z,87.13
2022-10-18T23:38:31.364Z,86.52
2022-10-18T23:41:16.828Z,86.25
2022-10-18T23:44:00.520Z,86.39
2022-10-18T23:46:44.286Z,86.00
2022-10-18T23:49:28.090Z,85.70
2022-10-18T23:52:13.375Z,86.29
2022-10-18T23:54:57.177Z,86.17
2022-10-18T23:57:40.872Z,86.22
